Time;durP1;ratioP1;P1;durP2;ratioP2;P2;SDS_P1;SDS_P2;PMS_P1;PMS_P2;Temp;Humidity;BMP_temperature;BMP_pressure;BME280_temperature;BME280_humidity;BME280_pressure;Samples;Min_cycle;Max_cycle;Signal;HPM_P1;HPM_P2
2022/09/26 00:01:09;;;;;;;;;4.00;3.00;;;;;15.44;54.05;100591.19;5058290;28;45557;-63
2022/09/26 00:03:35;;;;;;;;;1.00;1.00;;;;;15.46;54.12;100591.97;5058083;28;45474;-63
2022/09/26 00:06:03;;;;;;;;;1.00;1.00;;;;;15.58;53.33;100598.38;5058417;28;45478;-65
2022/09/26 00:08:28;;;;;;;;;1.67;1.67;;;;;15.48;54.81;100594.53;5058473;28;45354;-63
2022/09/26 00:10:56;;;;;;;;;2.00;2.00;;;;;15.44;54.42;100598.28;5058628;28;45428;-63
2022/09/26 00:13:22;;;;;;;;;2.00;2.00;;;;;15.46;54.01;100596.41;5057398;28;45411;-64
2022/09/26 00:15:47;;;;;;;;;4.00;2.00;;;;;15.41;54.20;100587.84;5058308;28;45454;-67
2022/09/26 00:18:13;;;;;;;;;3.00;3.00;;;;;15.43;54.12;100588.63;5058680;28;45454;-65
2022/09/26 00:20:38;;;;;;;;;1.00;1.00;;;;;15.47;54.87;100582.22;5058143;28;46178;-65
2022/09/26 00:23:03;;;;;;;;;1.00;1.00;;;;;15.42;54.29;100586.91;5058127;28;45380;-67
2022/09/26 00:25:29;;;;;;;;;3.00;1.00;;;;;15.41;54.36;100578.09;5057837;28;45438;-64
2022/09/26 00:27:54;;;;;;;;;2.00;2.00;;;;;15.31;54.07;100568.09;5039272;28;45484;-64
2022/09/26 00:30:20;;;;;;;;;2.00;2.00;;;;;15.36;55.02;100574.00;5057865;28;46158;-63
2022/09/26 00:32:45;;;;;;;;;3.33;2.00;;;;;15.38;55.08;100559.72;5058055;28;45466;-67
2022/09/26 00:35:11;;;;;;;;;2.67;2.67;;;;;15.38;54.32;100557.09;5038706;28;45454;-67
2022/09/26 00:37:36;;;;;;;;;0.67;0.67;;;;;15.39;55.08;100563.22;5058156;28;45584;-65
2022/09/26 00:40:03;;;;;;;;;2.67;1.33;;;;;15.42;54.78;100557.75;5057607;28;45535;-66
2022/09/26 00:42:28;;;;;;;;;2.00;2.00;;;;;15.45;54.45;100558.47;5057900;28;45414;-66
2022/09/26 00:44:53;;;;;;;;;2.00;2.00;;;;;15.46;54.33;100549.56;5058137;28;45354;-64
2022/09/26 00:47:30;;;;;;;;;4.00;3.00;;;;;15.41;53.72;100541.00;5058422;28;45308;-65
2022/09/26 00:50:01;;;;;;;;;3.00;3.00;;;;;15.38;54.05;100549.13;5057184;28;46092;-66
2022/09/26 00:52:32;;;;;;;;;1.00;1.00;;;;;15.34;54.15;100544.09;5038987;28;45493;-66
2022/09/26 00:55:01;;;;;;;;;2.00;2.00;;;;;15.31;53.83;100541.59;5037626;28;45480;-63
2022/09/26 00:57:47;;;;;;;;;1.00;1.00;;;;;15.32;53.74;100545.97;5052741;28;45567;-66
2022/09/26 01:00:14;;;;;;;;;1.00;1.00;;;;;15.27;54.75;100530.34;5057737;28;45394;-67
2022/09/26 01:02:41;;;;;;;;;2.00;1.00;;;;;15.30;53.99;100537.25;5039582;28;45342;-64
2022/09/26 01:05:09;;;;;;;;;1.00;1.00;;;;;15.29;54.68;100523.16;5057466;28;45443;-64
2022/09/26 01:07:35;;;;;;;;;1.00;1.00;;;;;15.31;55.00;100526.56;5023126;28;45574;-67
2022/09/26 01:10:03;;;;;;;;;2.00;1.00;;;;;15.31;53.84;100525.72;5057223;28;45388;-64
2022/09/26 01:12:30;;;;;;;;;2.00;2.00;;;;;15.23;54.68;100519.06;5056365;28;45450;-65
2022/09/26 01:14:56;;;;;;;;;3.33;2.00;;;;;15.29;53.95;100519.66;5056938;28;45422;-63
2022/09/26 01:17:24;;;;;;;;;3.67;2.00;;;;;15.28;54.00;100525.88;5039302;28;45329;-65
2022/09/26 01:20:09;;;;;;;;;2.67;2.00;;;;;15.24;54.64;100525.22;5039247;28;45375;-65
2022/09/26 01:22:50;;;;;;;;;1.00;1.00;;;;;15.25;53.86;100526.91;5056754;28;45455;-63
2022/09/26 01:25:33;;;;;;;;;3.00;2.00;;;;;15.20;54.26;100539.56;5038014;28;45468;-64
2022/09/26 01:28:14;;;;;;;;;1.67;1.67;;;;;15.17;54.88;100527.34;5038771;28;45388;-63
2022/09/26 01:30:50;;;;;;;;;1.00;1.00;;;;;15.09;55.17;100520.75;5057064;28;45454;-64
2022/09/26 01:33:57;;;;;;;;;1.00;1.00;;;;;15.12;54.65;100523.22;5039182;28;45435;-63
2022/09/26 01:36:43;;;;;;;;;1.00;1.00;;;;;15.09;55.09;100526.91;5056746;28;45434;-65
2022/09/26 01:39:21;;;;;;;;;2.00;1.00;;;;;15.06;54.13;100515.63;5056179;28;45558;-62
2022/09/26 01:41:57;;;;;;;;;0.67;0.67;;;;;15.09;54.60;100516.31;5036878;28;45423;-62
2022/09/26 01:44:40;;;;;;;;;4.00;1.33;;;;;15.13;54.56;100512.56;5057177;28;45572;-65
2022/09/26 01:47:39;;;;;;;;;1.00;1.00;;;;;15.14;54.84;100521.34;5056038;28;45486;-65
2022/09/26 01:50:24;;;;;;;;;3.00;2.00;;;;;15.11;54.16;100503.00;5056728;28;45544;-68
2022/09/26 01:53:11;;;;;;;;;0.67;0.67;;;;;15.06;54.76;100505.03;5038561;28;48143;-67
2022/09/26 01:55:58;;;;;;;;;2.00;0.33;;;;;15.03;54.48;100500.75;5056308;28;45498;-62
2022/09/26 01:58:26;;;;;;;;;4.00;1.00;;;;;15.08;54.41;100497.88;5056153;28;45422;-64
2022/09/26 02:00:57;;;;;;;;;1.00;1.00;;;;;15.08;53.79;100495.22;5056309;28;45305;-66
2022/09/26 02:03:28;;;;;;;;;0.67;0.67;;;;;15.12;53.82;100487.00;5056216;28;45490;-66
2022/09/26 02:05:56;;;;;;;;;0.33;0.33;;;;;15.07;54.17;100483.78;5056277;28;45439;-62
2022/09/26 02:08:29;;;;;;;;;1.33;1.33;;;;;15.03;53.41;100475.13;5054940;28;45451;-63
2022/09/26 02:11:02;;;;;;;;;1.67;1.67;;;;;14.93;54.11;100468.63;5031136;28;45577;-63
2022/09/26 02:13:33;;;;;;;;;1.33;1.33;;;;;15.02;53.95;100475.22;5049770;28;46666;-65
2022/09/26 02:16:08;;;;;;;;;2.00;1.00;;;;;15.04;53.72;100468.03;5056090;28;45911;-65
2022/09/26 02:18:42;;;;;;;;;1.00;1.00;;;;;15.08;53.99;100471.38;5056030;28;45311;-64
2022/09/26 02:21:16;;;;;;;;;0.33;0.33;;;;;15.06;54.03;100466.16;5055074;28;45371;-66
2022/09/26 02:23:42;;;;;;;;;1.00;1.00;;;;;15.05;54.16;100455.66;5054824;28;45432;-67
2022/09/26 02:26:08;;;;;;;;;0.67;0.67;;;;;15.08;53.28;100452.84;5055584;28;45503;-65
2022/09/26 02:28:33;;;;;;;;;1.00;0.67;;;;;15.07;53.63;100451.13;5055631;28;45499;-64
2022/09/26 02:31:01;;;;;;;;;0.67;0.67;;;;;15.05;53.68;100445.06;5054770;28;45546;-67
2022/09/26 02:33:27;;;;;;;;;3.00;1.33;;;;;15.02;53.65;100444.28;5055914;28;45500;-65
2022/09/26 02:35:53;;;;;;;;;1.00;1.00;;;;;14.98;53.37;100439.25;5054511;28;45511;-64
2022/09/26 02:38:19;;;;;;;;;1.00;1.00;;;;;15.04;53.26;100444.19;5056026;28;45388;-65
2022/09/26 02:41:27;;;;;;;;;1.33;1.00;;;;;15.01;54.09;100436.41;5055977;28;45612;-65
2022/09/26 02:44:19;;;;;;;;;2.33;1.67;;;;;15.03;53.87;100427.44;5055556;28;45396;-64
2022/09/26 02:46:53;;;;;;;;;1.33;1.33;;;;;15.03;54.45;100424.81;5055531;28;45410;-63
2022/09/26 02:49:44;;;;;;;;;0.67;0.67;;;;;14.99;54.80;100412.69;5037538;28;45423;-65
2022/09/26 02:52:26;;;;;;;;;1.67;0.67;;;;;15.00;53.87;100403.78;5054915;28;45367;-63
2022/09/26 02:55:05;;;;;;;;;1.67;1.67;;;;;15.06;54.01;100393.78;5055367;28;46354;-67
2022/09/26 02:58:05;;;;;;;;;4.00;3.67;;;;;15.11;53.25;100379.34;5055036;28;45427;-62
2022/09/26 03:00:46;;;;;;;;;1.00;1.00;;;;;15.08;53.71;100386.63;4953811;28;45596;-66
2022/09/26 03:03:25;;;;;;;;;3.00;3.00;;;;;15.08;53.06;100376.88;5044255;28;45362;-64
2022/09/26 03:05:54;;;;;;;;;1.67;1.00;;;;;15.07;53.21;100374.31;5035153;28;45462;-66
2022/09/26 03:08:25;;;;;;;;;1.00;0.00;;;;;15.09;53.55;100375.06;5035037;28;45375;-66
2022/09/26 03:10:52;;;;;;;;;0.67;0.67;;;;;15.08;53.28;100371.56;5035362;28;45416;-65
2022/09/26 03:13:19;;;;;;;;;2.33;1.33;;;;;14.97;53.72;100353.66;5017204;28;45439;-65
2022/09/26 03:15:51;;;;;;;;;1.00;1.00;;;;;15.04;53.64;100351.50;5035129;28;45513;-64
2022/09/26 03:18:23;;;;;;;;;1.00;1.00;;;;;15.05;53.68;100350.56;5036834;28;45351;-64
2022/09/26 03:20:53;;;;;;;;;0.67;0.67;;;;;15.00;53.56;100340.22;5055324;28;45527;-62
2022/09/26 03:23:22;;;;;;;;;0.00;0.00;;;;;14.96;53.63;100324.59;5055216;28;45627;-68
2022/09/26 03:26:16;;;;;;;;;1.67;1.33;;;;;15.03;54.03;100333.91;5054287;28;45435;-65
2022/09/26 03:28:41;;;;;;;;;0.67;0.33;;;;;15.07;53.63;100335.44;5054101;28;45428;-63
2022/09/26 03:31:07;;;;;;;;;0.67;0.00;;;;;15.10;54.01;100337.91;5036679;28;45404;-64
2022/09/26 03:33:33;;;;;;;;;0.33;0.33;;;;;15.10;53.74;100324.66;5055896;28;45671;-63
2022/09/26 03:35:59;;;;;;;;;1.00;1.00;;;;;15.09;54.09;100320.28;5036637;28;47456;-66
2022/09/26 03:38:25;;;;;;;;;1.00;0.00;;;;;15.08;53.56;100315.97;5054747;28;45429;-63
2022/09/26 03:40:51;;;;;;;;;1.00;1.00;;;;;15.09;53.63;100322.94;5053911;28;45584;-67
2022/09/26 03:43:17;;;;;;;;;0.00;0.00;;;;;15.09;53.43;100309.69;5055011;28;45664;-63
2022/09/26 03:45:42;;;;;;;;;1.00;1.00;;;;;15.14;53.82;100302.34;5053755;28;45438;-65
2022/09/26 03:48:07;;;;;;;;;1.00;1.00;;;;;15.18;53.50;100303.88;5055283;28;45431;-68
2022/09/26 03:50:33;;;;;;;;;1.00;1.00;;;;;15.10;53.73;100281.41;5054589;28;45476;-66
2022/09/26 03:53:00;;;;;;;;;1.67;1.67;;;;;15.16;52.49;100289.00;5054466;28;45384;-68
2022/09/26 03:55:25;;;;;;;;;1.00;1.00;;;;;15.13;53.48;100290.06;5054944;28;45536;-63
2022/09/26 03:57:50;;;;;;;;;1.00;1.00;;;;;15.12;53.01;100287.47;5054737;28;45474;-64
2022/09/26 04:00:16;;;;;;;;;1.00;1.00;;;;;15.02;53.00;100272.16;5054408;28;45296;-65
2022/09/26 04:02:42;;;;;;;;;0.33;0.33;;;;;15.06;53.35;100278.09;5055018;28;45391;-66
2022/09/26 04:05:08;;;;;;;;;0.67;0.67;;;;;15.06;52.82;100282.56;5054380;28;46348;-67
2022/09/26 04:07:33;;;;;;;;;1.00;1.00;;;;;15.05;52.81;100280.88;5053695;28;45530;-63
2022/09/26 04:09:59;;;;;;;;;0.00;0.00;;;;;15.07;53.01;100276.31;5053953;28;45455;-66
2022/09/26 04:12:24;;;;;;;;;1.00;1.00;;;;;15.02;52.28;100273.94;5058214;28;45483;-67
2022/09/26 04:14:49;;;;;;;;;1.00;1.00;;;;;14.97;52.46;100255.66;5057338;28;45833;-67
2022/09/26 04:17:15;;;;;;;;;0.00;0.00;;;;;15.03;52.44;100246.50;5056776;28;51400;-67
2022/09/26 04:19:41;;;;;;;;;1.00;1.00;;;;;15.03;52.19;100250.00;5057951;28;45595;-64
2022/09/26 04:22:08;;;;;;;;;1.00;1.00;;;;;15.06;52.53;100241.03;5046404;28;45416;-63
2022/09/26 04:24:34;;;;;;;;;2.00;1.00;;;;;14.97;51.51;100241.59;5050030;28;46063;-64
2022/09/26 04:26:59;;;;;;;;;1.00;1.00;;;;;14.93;52.57;100225.00;5046000;28;45451;-65
2022/09/26 04:29:26;;;;;;;;;2.00;1.00;;;;;14.95;52.07;100222.28;5049645;28;45418;-63
2022/09/26 04:31:51;;;;;;;;;1.67;1.67;;;;;15.02;52.34;100215.69;5037992;28;45537;-63
2022/09/26 04:34:17;;;;;;;;;0.00;0.00;;;;;15.02;52.72;100205.94;5051525;28;46622;-68
2022/09/26 04:36:42;;;;;;;;;1.00;1.00;;;;;15.00;52.92;100199.88;5043265;28;45395;-62
2022/09/26 04:39:08;;;;;;;;;1.33;1.33;;;;;15.02;52.55;100213.03;5050152;28;45675;-66
2022/09/26 04:41:34;;;;;;;;;2.00;2.00;;;;;14.99;52.41;100199.94;5037751;28;45554;-62
2022/09/26 04:44:00;;;;;;;;;1.00;1.00;;;;;14.97;52.92;100199.22;5039007;28;46951;-64
2022/09/26 04:46:27;;;;;;;;;1.00;1.00;;;;;15.01;52.66;100200.72;5037288;28;45398;-64
2022/09/26 04:48:55;;;;;;;;;3.00;1.00;;;;;15.05;53.03;100194.31;5037547;28;45542;-65
2022/09/26 04:51:22;;;;;;;;;1.00;1.00;;;;;15.03;53.17;100167.06;5036693;28;45574;-64
2022/09/26 04:53:47;;;;;;;;;0.00;0.00;;;;;15.03;52.57;100180.28;5019881;28;45552;-64
2022/09/26 04:56:14;;;;;;;;;2.00;1.33;;;;;14.99;52.67;100168.16;5033663;28;45507;-63
2022/09/26 04:58:41;;;;;;;;;1.33;1.33;;;;;15.00;52.36;100176.03;5053515;28;45393;-66
2022/09/26 05:01:09;;;;;;;;;0.00;0.00;;;;;15.01;52.32;100175.09;5037393;28;45353;-63
2022/09/26 05:03:37;;;;;;;;;0.00;0.00;;;;;14.93;52.64;100165.91;5044797;28;45553;-63
2022/09/26 05:06:07;;;;;;;;;0.00;0.00;;;;;14.82;53.32;100165.69;5039164;28;45485;-64
2022/09/26 05:08:38;;;;;;;;;1.00;1.00;;;;;14.88;53.71;100162.69;5057437;28;45552;-66
2022/09/26 05:11:04;;;;;;;;;0.67;0.67;;;;;14.93;53.37;100165.91;5044547;28;45466;-64
2022/09/26 05:13:29;;;;;;;;;0.00;0.00;;;;;14.87;52.56;100140.66;5036811;28;46571;-66
2022/09/26 05:15:57;;;;;;;;;1.33;1.33;;;;;14.93;52.81;100144.72;5046505;28;45479;-65
2022/09/26 05:18:25;;;;;;;;;0.67;0.67;;;;;14.93;53.46;100134.97;5056809;28;45410;-66
2022/09/26 05:20:51;;;;;;;;;1.00;1.00;;;;;14.99;53.05;100139.91;5056716;28;45501;-67
2022/09/26 05:26:22;;;;;;;;;3.00;1.67;;;;;14.99;52.44;100117.84;5056832;28;45458;-62
2022/09/26 05:28:54;;;;;;;;;0.00;0.00;;;;;14.98;53.36;100117.00;5055559;28;45444;-64
2022/09/26 05:31:22;;;;;;;;;3.00;1.00;;;;;14.94;53.71;100112.88;5056625;28;45467;-63
2022/09/26 05:33:48;;;;;;;;;1.00;1.00;;;;;14.85;53.72;100112.56;5054108;28;45467;-66
2022/09/26 05:36:13;;;;;;;;;2.67;2.00;;;;;14.78;53.35;100102.34;5036724;28;45499;-68
2022/09/26 05:38:39;;;;;;;;;1.00;1.00;;;;;14.82;54.22;100110.94;5018870;28;45681;-64
2022/09/26 05:41:04;;;;;;;;;1.00;1.00;;;;;14.74;53.25;100099.97;5053803;28;45546;-64
2022/09/26 05:43:34;;;;;;;;;0.33;0.33;;;;;14.73;54.14;100108.88;5056715;28;45421;-64
2022/09/26 05:46:05;;;;;;;;;0.67;0.67;;;;;14.70;54.60;100107.25;5056938;28;45387;-61
2022/09/26 05:48:32;;;;;;;;;0.00;0.00;;;;;14.64;53.79;100089.13;5056288;28;45446;-64
2022/09/26 05:51:03;;;;;;;;;0.00;0.00;;;;;14.61;54.89;100086.63;5056887;28;45444;-65
2022/09/26 05:53:29;;;;;;;;;1.33;1.00;;;;;14.62;53.94;100092.78;5056257;28;46518;-67
2022/09/26 05:55:54;;;;;;;;;1.00;1.00;;;;;14.64;54.43;100086.47;5055414;28;46078;-62
2022/09/26 05:58:19;;;;;;;;;3.00;2.00;;;;;14.61;54.37;100083.13;5052754;28;48663;-62
2022/09/26 06:00:48;;;;;;;;;1.67;1.67;;;;;14.64;54.24;100090.88;5048457;28;45459;-61
2022/09/26 06:03:14;;;;;;;;;1.00;1.00;;;;;14.66;55.00;100089.00;5056316;28;45478;-62
2022/09/26 06:05:43;;;;;;;;;0.67;0.67;;;;;14.61;54.49;100080.50;5039143;28;45384;-62
2022/09/26 06:08:09;;;;;;;;;1.00;1.00;;;;;14.52;55.21;100077.44;5036263;28;45588;-62
2022/09/26 06:10:37;;;;;;;;;1.33;1.33;;;;;14.55;54.44;100082.56;5036379;28;45422;-62
2022/09/26 06:13:03;;;;;;;;;0.67;0.67;;;;;14.54;55.43;100077.38;5042259;28;45738;-62
2022/09/26 06:15:28;;;;;;;;;1.67;1.67;;;;;14.55;54.67;100084.34;5042781;28;45493;-61
2022/09/26 06:18:05;;;;;;;;;4.00;3.00;;;;;14.52;54.82;100087.16;5036117;28;45439;-61
2022/09/26 06:20:32;;;;;;;;;5.33;5.00;;;;;14.53;55.31;100078.31;5028694;28;45512;-63
2022/09/26 06:22:58;;;;;;;;;1.00;1.00;;;;;14.61;54.90;100080.50;5037798;28;45376;-61
2022/09/26 06:25:24;;;;;;;;;1.00;1.00;;;;;14.62;55.44;100085.69;5040288;28;45429;-62
2022/09/26 06:27:54;;;;;;;;;1.00;1.00;;;;;14.64;54.77;100080.28;5056088;28;45446;-62
2022/09/26 06:30:20;;;;;;;;;1.00;1.00;;;;;14.65;54.46;100080.22;5049765;28;45493;-64
2022/09/26 06:32:46;;;;;;;;;2.00;2.00;;;;;14.71;54.80;100079.00;5037693;28;45693;-63
2022/09/26 06:35:12;;;;;;;;;2.67;2.67;;;;;14.69;54.56;100078.22;5055553;28;45332;-63
2022/09/26 06:37:37;;;;;;;;;1.33;1.33;;;;;14.62;55.12;100083.06;5055726;28;45427;-62
2022/09/26 06:40:03;;;;;;;;;2.67;2.67;;;;;14.58;55.18;100069.13;5055889;28;45684;-63
2022/09/26 06:42:36;;;;;;;;;8.33;7.67;;;;;14.60;54.87;100079.66;5055267;28;45661;-63
2022/09/26 06:45:03;;;;;;;;;1.33;1.33;;;;;14.60;55.29;100073.50;5055105;28;45541;-63
2022/09/26 06:47:29;;;;;;;;;1.00;1.00;;;;;14.53;54.54;100065.06;5055735;28;45393;-63
2022/09/26 06:49:54;;;;;;;;;1.00;1.00;;;;;14.52;55.88;100068.63;5055324;28;47186;-63
2022/09/26 06:52:19;;;;;;;;;3.00;3.00;;;;;14.58;55.30;100057.69;5055251;28;56018;-63
2022/09/26 06:54:45;;;;;;;;;4.00;2.00;;;;;14.60;55.40;100057.63;5054991;28;45430;-63
2022/09/26 06:57:10;;;;;;;;;1.33;1.33;;;;;14.56;55.11;100047.22;5055377;28;45431;-63
2022/09/26 06:59:35;;;;;;;;;2.33;2.33;;;;;14.51;54.82;100040.47;5055429;28;45591;-63
2022/09/26 07:02:00;;;;;;;;;3.33;2.00;;;;;14.57;55.03;100045.44;5055443;28;45421;-63
2022/09/26 07:04:26;;;;;;;;;1.00;1.00;;;;;14.64;55.23;100045.88;5037276;28;45482;-63
2022/09/26 07:06:52;;;;;;;;;2.00;2.00;;;;;14.60;55.23;100049.69;5053961;28;45456;-66
2022/09/26 07:09:18;;;;;;;;;3.00;3.00;;;;;14.60;55.17;100036.44;5055213;28;45624;-63
2022/09/26 07:11:46;;;;;;;;;1.67;1.67;;;;;14.63;55.14;100030.97;5055031;28;46470;-63
2022/09/26 07:14:15;;;;;;;;;2.00;2.00;;;;;14.66;55.45;100036.91;5055042;28;45470;-62
2022/09/26 07:16:41;;;;;;;;;6.33;4.00;;;;;14.65;55.46;100029.94;5055064;28;45529;-63
2022/09/26 07:19:06;;;;;;;;;2.00;2.00;;;;;14.69;55.12;100015.53;5054989;28;45459;-63
2022/09/26 07:21:32;;;;;;;;;2.00;2.00;;;;;14.72;54.79;100014.50;5053388;28;45524;-62
2022/09/26 07:23:57;;;;;;;;;2.00;2.00;;;;;14.72;54.85;99999.50;5053104;28;45525;-62
2022/09/26 07:26:22;;;;;;;;;4.00;2.33;;;;;14.76;54.53;100003.66;5054789;28;45402;-63
2022/09/26 07:28:48;;;;;;;;;4.33;3.67;;;;;14.76;54.56;100001.00;5055170;28;45448;-62
2022/09/26 07:31:14;;;;;;;;;3.67;2.67;;;;;14.79;55.17;99997.31;5054790;28;45643;-63
2022/09/26 07:33:40;;;;;;;;;2.00;2.00;;;;;14.74;54.04;99976.41;5055747;28;45364;-63
2022/09/26 07:36:07;;;;;;;;;1.67;1.67;;;;;14.82;54.49;99990.97;5055010;28;45453;-63
2022/09/26 07:38:32;;;;;;;;;1.00;1.00;;;;;14.78;54.77;99980.59;5036762;28;45578;-63
2022/09/26 07:40:59;;;;;;;;;1.00;1.00;;;;;14.80;54.59;99980.47;5054671;28;45676;-63
2022/09/26 07:43:24;;;;;;;;;4.00;4.00;;;;;14.75;54.72;99967.53;5054882;28;45434;-63
2022/09/26 07:51:19;;;;;;;;;2.00;1.33;;;;;14.74;54.44;99949.94;5057986;28;45420;-63
2022/09/26 07:53:45;;;;;;;;;1.00;1.00;;;;;14.83;54.08;99955.59;5040009;28;45428;-62
2022/09/26 07:56:11;;;;;;;;;1.67;1.00;;;;;14.83;54.37;99960.91;5058330;28;45456;-62
2022/09/26 07:58:38;;;;;;;;;2.00;2.00;;;;;14.80;54.32;99946.94;5058182;28;45411;-62
2022/09/26 08:01:10;;;;;;;;;1.00;1.00;;;;;14.83;54.35;99945.00;5057797;28;45512;-62
2022/09/26 08:03:44;;;;;;;;;1.00;1.00;;;;;14.84;54.02;99938.78;5057944;28;45476;-62
2022/09/26 08:06:11;;;;;;;;;3.67;3.67;;;;;14.80;53.97;99941.63;5058168;28;45426;-62
2022/09/26 08:08:38;;;;;;;;;3.67;2.67;;;;;14.85;54.41;99943.13;5039888;28;45718;-62
2022/09/26 08:11:04;;;;;;;;;4.33;3.00;;;;;14.89;54.12;99950.78;5039777;28;45522;-62
2022/09/26 08:13:31;;;;;;;;;2.00;2.00;;;;;14.88;53.78;99957.00;5039898;28;45456;-62
2022/09/26 08:16:03;;;;;;;;;3.00;3.00;;;;;14.94;54.02;99942.56;5057988;28;45417;-62
2022/09/26 08:18:29;;;;;;;;;2.00;2.00;;;;;14.96;54.05;99936.22;5058004;28;45353;-62
2022/09/26 08:20:54;;;;;;;;;2.67;2.67;;;;;14.95;53.86;99936.28;5057655;28;46564;-62
2022/09/26 08:23:20;;;;;;;;;4.00;2.67;;;;;14.92;53.52;99918.81;5056264;28;45729;-62
2022/09/26 08:25:45;;;;;;;;;2.00;2.00;;;;;14.96;53.95;99922.97;5057606;28;45616;-62
2022/09/26 08:28:11;;;;;;;;;2.67;1.67;;;;;15.02;54.41;99927.03;5057841;28;45418;-62
2022/09/26 08:30:38;;;;;;;;;2.00;2.00;;;;;15.07;53.87;99916.09;5057486;28;45554;-62
2022/09/26 08:33:03;;;;;;;;;1.67;1.67;;;;;15.13;54.08;99921.88;5057629;28;45715;-63
2022/09/26 08:35:37;;;;;;;;;1.00;1.00;;;;;15.13;53.55;99919.22;5058438;28;45534;-62
2022/09/26 08:38:05;;;;;;;;;2.00;2.00;;;;;15.13;53.12;99911.28;5056586;28;45301;-62
2022/09/26 08:40:54;;;;;;;;;2.00;2.00;;;;;15.19;53.08;99902.91;5057490;28;45426;-62
2022/09/26 08:43:42;;;;;;;;;3.00;2.33;;;;;15.20;52.95;99901.13;5057093;28;45330;-63
2022/09/26 08:49:24;;;;;;;;;2.00;2.00;;;;;15.34;53.18;99900.19;5057409;28;45425;-62
2022/09/26 08:51:56;;;;;;;;;2.00;2.00;;;;;15.24;52.85;99878.78;5057285;28;46474;-63
2022/09/26 08:54:41;;;;;;;;;2.00;2.00;;;;;15.34;53.17;99884.31;5057246;28;45398;-62
2022/09/26 08:57:18;;;;;;;;;1.00;1.00;;;;;15.36;52.76;99888.56;5056636;28;45407;-63
2022/09/26 08:59:46;;;;;;;;;3.33;2.67;;;;;15.37;52.33;99870.88;5057189;28;45420;-62
2022/09/26 09:02:36;;;;;;;;;1.00;1.00;;;;;15.40;51.73;99854.78;5057015;28;45510;-62
2022/09/26 09:05:11;;;;;;;;;2.00;2.00;;;;;15.52;52.24;99883.06;5057024;28;45585;-62
2022/09/26 09:07:36;;;;;;;;;2.00;2.00;;;;;15.50;51.81;99879.72;5057244;28;45411;-62
2022/09/26 09:10:06;;;;;;;;;3.00;3.00;;;;;15.46;51.87;99851.69;5057124;28;45528;-62
2022/09/26 09:12:55;;;;;;;;;3.00;2.33;;;;;15.44;51.86;99846.50;5056714;28;45563;-62
2022/09/26 09:15:48;;;;;;;;;3.00;3.00;;;;;15.52;51.82;99859.22;5056945;28;45486;-62
2022/09/26 09:18:38;;;;;;;;;2.00;2.00;;;;;15.59;51.81;99847.25;5056820;28;45375;-62
2022/09/26 09:21:51;;;;;;;;;4.00;2.00;;;;;15.59;51.76;99834.00;5056821;28;45494;-62
2022/09/26 09:24:58;;;;;;;;;2.00;2.00;;;;;15.64;51.99;99833.72;5055803;28;45585;-62
2022/09/26 09:27:32;;;;;;;;;3.00;3.00;;;;;15.63;51.77;99822.22;5038830;28;45443;-63
2022/09/26 09:30:17;;;;;;;;;1.00;1.00;;;;;15.71;51.61;99820.91;5056846;28;45379;-63
2022/09/26 09:32:59;;;;;;;;;2.00;2.00;;;;;15.75;51.52;99815.28;5056878;28;45373;-62
2022/09/26 09:36:06;;;;;;;;;2.33;1.00;;;;;15.79;50.45;99810.59;5057105;28;45387;-62
2022/09/26 09:38:35;;;;;;;;;3.00;3.00;;;;;15.76;50.79;99806.34;4974623;28;45639;-62
2022/09/26 09:41:17;;;;;;;;;3.00;1.00;;;;;15.71;50.23;99805.81;5041231;28;45559;-62
2022/09/26 09:43:47;;;;;;;;;1.00;1.00;;;;;15.74;50.34;99797.66;5056571;28;45317;-63
2022/09/26 09:46:27;;;;;;;;;1.00;1.00;;;;;15.82;51.19;99802.44;5038153;28;45469;-63
2022/09/26 09:48:59;;;;;;;;;1.67;1.67;;;;;15.86;50.00;99790.66;5038347;28;45384;-63
2022/09/26 09:51:35;;;;;;;;;2.00;2.00;;;;;15.86;50.68;99772.09;5056509;28;45486;-62
2022/09/26 09:54:08;;;;;;;;;5.00;1.00;;;;;15.90;50.67;99779.75;5056260;28;45324;-62
2022/09/26 09:56:47;;;;;;;;;2.00;2.00;;;;;15.95;49.56;99774.09;5056202;28;45521;-63
2022/09/26 09:59:51;;;;;;;;;2.67;1.33;;;;;15.95;49.71;99765.28;5038493;28;45407;-63
2022/09/26 10:02:29;;;;;;;;;1.67;1.67;;;;;15.94;50.41;99767.09;5056296;28;45371;-62
2022/09/26 10:05:23;;;;;;;;;1.00;1.00;;;;;15.89;49.86;99763.94;5056244;28;45466;-63
2022/09/26 10:07:52;;;;;;;;;1.00;1.00;;;;;15.82;50.17;99744.09;5054739;28;45433;-62
2022/09/26 10:10:23;;;;;;;;;1.67;0.67;;;;;15.89;50.67;99755.97;5055788;28;45487;-63
2022/09/26 10:12:50;;;;;;;;;2.00;2.00;;;;;15.84;50.08;99752.81;5037932;28;45475;-63
2022/09/26 10:15:25;;;;;;;;;1.00;1.00;;;;;15.82;50.51;99747.59;5056122;28;45359;-63
2022/09/26 10:18:10;;;;;;;;;0.67;0.67;;;;;15.73;49.81;99712.94;5055791;28;45761;-62
2022/09/26 10:20:40;;;;;;;;;1.00;1.00;;;;;15.85;50.31;99743.88;5037605;28;45500;-62
2022/09/26 10:23:16;;;;;;;;;1.00;1.00;;;;;15.77;50.71;99732.97;5055368;28;45699;-62
2022/09/26 10:25:47;;;;;;;;;3.00;2.00;;;;;15.82;50.98;99715.78;5037647;28;45427;-61
2022/09/26 10:28:27;;;;;;;;;6.00;4.00;;;;;15.82;51.46;99722.88;5055462;28;45454;-62
2022/09/26 10:30:59;;;;;;;;;4.00;4.00;;;;;15.80;51.50;99700.97;5055219;28;45384;-62
2022/09/26 10:33:32;;;;;;;;;3.67;3.00;;;;;15.75;50.88;99690.69;5055860;28;45465;-62
2022/09/26 10:36:02;;;;;;;;;1.67;1.67;;;;;15.78;51.09;99693.09;5056291;28;45450;-62
2022/09/26 10:38:28;;;;;;;;;5.33;5.33;;;;;15.74;51.85;99681.00;5055401;28;46553;-62
2022/09/26 10:40:58;;;;;;;;;1.00;1.00;;;;;15.67;50.62;99674.44;5055512;28;45385;-62
2022/09/26 10:43:27;;;;;;;;;3.00;3.00;;;;;15.69;51.20;99672.56;5055573;28;45541;-62
2022/09/26 10:46:05;;;;;;;;;4.00;4.00;;;;;15.74;51.88;99666.91;5055468;28;45589;-64
2022/09/26 10:48:55;;;;;;;;;4.00;3.00;;;;;15.75;51.72;99656.22;5036735;28;45746;-62
2022/09/26 10:51:29;;;;;;;;;4.33;4.33;;;;;15.79;51.39;99657.66;5055091;28;45432;-62
2022/09/26 10:54:05;;;;;;;;;3.33;2.00;;;;;15.76;51.32;99657.06;5054912;28;45412;-62
2022/09/26 10:56:37;;;;;;;;;1.00;1.00;;;;;15.64;51.41;99640.22;5054181;28;45438;-61
2022/09/26 10:59:04;;;;;;;;;4.00;3.00;;;;;15.61;52.62;99648.38;5055677;28;46607;-62
2022/09/26 11:01:36;;;;;;;;;6.33;6.00;;;;;15.56;51.92;99642.56;5050880;28;45458;-61
2022/09/26 11:07:34;;;;;;;;;4.00;3.33;;;;;15.53;53.63;99635.66;4993197;28;45414;-62
2022/09/26 11:10:05;;;;;;;;;5.00;5.00;;;;;15.53;53.40;99625.06;5009605;28;46263;-61
2022/09/26 11:12:38;;;;;;;;;2.00;2.00;;;;;15.55;55.65;99636.38;5041210;28;45786;-61
2022/09/26 11:15:13;;;;;;;;;3.00;3.00;;;;;15.53;54.13;99617.13;5033999;28;45503;-61
2022/09/26 11:17:52;;;;;;;;;2.00;2.00;;;;;15.52;54.57;99615.41;5035285;28;45484;-62
2022/09/26 11:20:47;;;;;;;;;1.00;1.00;;;;;15.58;55.14;99611.47;5037748;28;45548;-62
2022/09/26 11:23:43;;;;;;;;;2.00;2.00;;;;;15.57;55.81;99610.63;5049314;28;45684;-61
2022/09/26 11:26:15;;;;;;;;;3.00;3.00;;;;;15.55;54.72;99604.59;5053093;28;45422;-61
2022/09/26 11:28:51;;;;;;;;;3.33;3.33;;;;;15.50;56.57;99592.63;5058610;28;45460;-62
2022/09/26 11:31:28;;;;;;;;;3.67;3.67;;;;;15.46;58.27;99602.59;5043760;28;46245;-63
2022/09/26 11:33:57;;;;;;;;;5.67;5.67;;;;;15.38;58.60;99603.16;5039331;28;45415;-61
2022/09/26 11:36:32;;;;;;;;;4.00;4.00;;;;;15.36;57.82;99593.63;5038734;28;45482;-61
2022/09/26 11:39:17;;;;;;;;;7.33;6.33;;;;;15.36;58.10;99593.63;5029751;28;45599;-60
2022/09/26 11:41:45;;;;;;;;;2.33;2.33;;;;;15.30;58.87;99578.16;5048099;28;46307;-60
2022/09/26 11:44:46;;;;;;;;;3.00;3.00;;;;;15.20;59.85;99578.81;5051449;28;45525;-60
2022/09/26 11:47:35;;;;;;;;;2.00;2.00;;;;;15.14;58.43;99557.22;5038584;28;45454;-63
2022/09/26 11:50:24;;;;;;;;;3.00;3.00;;;;;15.01;61.01;99567.81;5028794;28;45549;-63
2022/09/26 11:52:49;;;;;;;;;3.00;1.67;;;;;14.99;61.01;99562.66;5054681;28;46462;-62
2022/09/26 11:55:51;;;;;;;;;2.00;2.00;;;;;14.93;62.29;99546.34;5056386;28;45425;-61
2022/09/26 11:58:38;;;;;;;;;2.00;2.00;;;;;14.91;62.05;99551.75;5035272;28;45415;-63
2022/09/26 12:01:20;;;;;;;;;1.67;1.67;;;;;14.71;62.64;99542.53;5058485;28;45380;-63
2022/09/26 12:04:26;;;;;;;;;1.00;1.00;;;;;14.68;63.61;99536.63;5057133;28;46156;-62
2022/09/26 12:06:56;;;;;;;;;0.00;0.00;;;;;14.62;64.29;99529.13;5057792;28;45509;-60